Time;durP1;ratioP1;P1;durP2;ratioP2;P2;SDS_P1;SDS_P2;PMS_P1;PMS_P2;Temp;Humidity;BMP_temperature;BMP_pressure;BME280_temperature;BME280_humidity;BME280_pressure;Samples;Min_cycle;Max_cycle;Signal;HPM_P1;HPM_P2
2022/07/21 00:00:53;;;;;;;12.43;10.57;;;21.60;99.90;;;22.10;66.92;97983.47;4992602;28;20069;-50
2022/07/21 00:03:21;;;;;;;14.95;11.82;;;21.70;99.90;;;22.09;66.60;97972.84;4991931;28;20486;-55
2022/07/21 00:05:49;;;;;;;11.60;10.40;;;21.60;99.90;;;22.09;66.58;97962.84;4991665;28;20045;-54
2022/07/21 00:08:17;;;;;;;15.25;11.32;;;21.70;99.90;;;21.96;66.77;97960.28;4991065;28;20050;-52
2022/07/21 00:10:45;;;;;;;14.40;12.95;;;21.50;99.90;;;21.96;66.35;97961.09;4991434;28;20050;-52
2022/07/21 00:13:13;;;;;;;13.07;11.23;;;21.50;99.90;;;21.95;66.42;97956.75;4991405;28;20050;-50
2022/07/21 00:15:41;;;;;;;12.98;11.73;;;21.40;99.90;;;21.92;66.73;97949.06;4992081;28;20388;-53
2022/07/21 00:18:09;;;;;;;13.32;11.75;;;21.30;99.90;;;21.91;66.86;97938.47;4991199;28;20354;-49
2022/07/21 00:20:37;;;;;;;12.88;11.60;;;21.30;99.90;;;21.89;67.04;97929.72;4991428;28;20268;-53
2022/07/21 00:23:05;;;;;;;14.63;13.05;;;21.40;99.90;;;21.89;66.95;97943.25;4990739;28;20049;-54
2022/07/21 00:25:33;;;;;;;13.73;11.52;;;21.40;99.90;;;21.83;67.13;97947.72;4990652;28;20054;-51
2022/07/21 00:28:03;;;;;;;14.35;12.13;;;21.30;99.90;;;21.82;66.98;97943.34;4991372;28;20452;-49
2022/07/21 00:30:32;;;;;;;16.02;12.18;;;21.30;99.90;;;21.79;66.85;97949.22;4990638;28;20096;-51
2022/07/21 00:33:00;;;;;;;13.18;11.60;;;21.30;99.90;;;21.78;66.59;97959.22;4989481;28;20064;-50
2022/07/21 00:35:28;;;;;;;15.73;12.68;;;21.20;99.90;;;21.77;66.62;97954.03;4991568;28;20056;-49
2022/07/21 00:37:56;;;;;;;13.75;11.20;;;21.20;99.90;;;21.77;66.92;97957.59;4991049;28;20059;-52
2022/07/21 00:40:25;;;;;;;13.63;12.05;;;21.30;99.90;;;21.76;66.93;97972.19;4991477;28;20057;-52
2022/07/21 00:42:53;;;;;;;14.30;12.27;;;21.20;99.90;;;21.77;67.20;97973.00;4990247;28;20234;-52
2022/07/21 00:45:21;;;;;;;13.77;11.85;;;21.30;99.90;;;21.79;67.34;97963.59;4989622;28;20245;-52
2022/07/21 00:47:49;;;;;;;16.13;13.48;;;21.30;99.90;;;21.72;67.12;97953.91;4990931;28;20065;-51
2022/07/21 00:50:20;;;;;;;13.70;12.13;;;21.10;99.90;;;21.69;67.24;97948.91;4991240;28;20060;-50
2022/07/21 00:52:49;;;;;;;15.48;13.88;;;21.10;99.90;;;21.70;67.27;97953.28;4991051;28;20273;-50
2022/07/21 00:55:20;;;;;;;14.43;12.50;;;21.20;99.90;;;21.74;67.64;97947.19;4991437;28;20085;-50
2022/07/21 00:57:49;;;;;;;14.48;12.52;;;21.30;99.90;;;21.78;67.23;97945.69;4991261;28;20050;-49
2022/07/21 01:00:26;;;;;;;14.30;12.70;;;21.40;99.90;;;21.79;67.35;97952.78;4989840;28;20060;-53
2022/07/21 01:02:56;;;;;;;13.27;11.88;;;21.30;99.90;;;21.80;67.50;97959.81;4989051;28;20045;-51
2022/07/21 01:05:25;;;;;;;14.20;10.85;;;21.30;99.90;;;21.79;67.26;97968.19;4990908;28;20060;-52
2022/07/21 01:07:55;;;;;;;15.60;13.25;;;21.30;99.90;;;21.82;67.29;97976.69;4990599;28;20060;-52
2022/07/21 01:10:24;;;;;;;15.95;12.73;;;21.40;99.90;;;21.85;67.32;97974.56;4988624;28;20046;-52
2022/07/21 01:12:52;;;;;;;14.38;12.40;;;21.40;99.90;;;21.78;67.25;97966.53;4989870;28;20062;-52
2022/07/21 01:15:23;;;;;;;14.73;13.13;;;21.30;99.90;;;21.70;67.20;97970.38;4991311;28;20054;-53
2022/07/21 01:17:52;;;;;;;13.10;11.68;;;21.20;99.90;;;21.63;67.35;97973.16;4990279;28;20524;-52
2022/07/21 01:20:23;;;;;;;12.45;11.25;;;21.10;99.90;;;21.59;67.64;97969.22;4990749;28;20042;-51
2022/07/21 01:22:55;;;;;;;15.40;12.30;;;21.00;99.90;;;21.58;67.25;97955.94;4988285;28;20042;-53
2022/07/21 01:25:24;;;;;;;15.90;11.93;;;21.10;99.90;;;21.56;67.60;97958.03;4991050;28;20053;-50
2022/07/21 01:27:51;;;;;;;15.05;11.38;;;21.10;99.90;;;21.53;67.30;97956.56;4990159;28;20370;-50
2022/07/21 01:30:20;;;;;;;14.15;11.80;;;21.00;99.90;;;21.51;67.45;97955.97;4988264;28;20068;-49
2022/07/21 01:32:47;;;;;;;14.68;11.77;;;21.00;99.90;;;21.53;67.56;97963.88;4989130;28;20058;-50
2022/07/21 01:35:16;;;;;;;14.05;12.50;;;21.10;99.90;;;21.52;67.80;97960.34;4989891;28;20052;-51
2022/07/21 01:37:47;;;;;;;17.05;12.27;;;21.10;99.90;;;21.48;67.67;97959.16;4988268;28;20352;-51
2022/07/21 01:43:05;;;;;;;15.00;11.95;;;21.10;99.90;;;21.54;67.69;97957.41;4990015;28;20057;-51
2022/07/21 01:45:40;;;;;;;12.57;10.27;;;21.10;99.90;;;21.58;66.96;97959.44;4989746;28;20049;-53
2022/07/21 01:48:09;;;;;;;14.18;11.02;;;21.20;99.90;;;21.58;67.01;97956.75;4988164;28;20062;-52
2022/07/21 01:50:37;;;;;;;13.68;11.40;;;21.20;99.90;;;21.58;67.44;97956.75;4989554;28;20060;-54
2022/07/21 01:53:05;;;;;;;12.27;11.07;;;21.20;99.90;;;21.57;67.27;97963.19;4988183;28;20494;-50
2022/07/21 01:55:33;;;;;;;12.13;10.55;;;21.20;99.90;;;21.62;66.83;97967.97;4988961;28;20574;-49
2022/07/21 01:58:02;;;;;;;12.48;10.57;;;21.20;99.90;;;21.63;66.90;97986.72;4989493;28;20054;-50
2022/07/21 02:00:29;;;;;;;13.57;10.80;;;21.30;99.90;;;21.62;66.80;97985.03;4987937;28;20050;-49
2022/07/21 02:02:57;;;;;;;12.82;10.85;;;21.30;99.90;;;21.65;66.97;97993.78;4987922;28;20053;-50
2022/07/21 02:05:25;;;;;;;12.10;9.82;;;21.40;99.90;;;21.65;67.25;97999.19;4990034;28;20589;-47
2022/07/21 02:07:53;;;;;;;12.13;10.00;;;21.30;99.90;;;21.64;67.49;97992.94;5020365;28;20062;-49
2022/07/21 02:10:21;;;;;;;12.35;9.82;;;21.30;99.90;;;21.62;67.43;97995.88;4989054;28;20410;-51
2022/07/21 02:12:48;;;;;;;11.85;9.65;;;21.30;99.90;;;21.63;67.69;97993.97;4987080;28;20084;-48
2022/07/21 02:15:16;;;;;;;11.05;9.95;;;21.30;99.90;;;21.66;67.68;97990.03;4990345;28;20058;-49
2022/07/21 02:17:44;;;;;;;9.52;8.52;;;21.30;99.90;;;21.65;67.62;97981.03;4989270;28;20281;-48
2022/07/21 02:20:12;;;;;;;15.27;10.77;;;21.30;99.90;;;21.64;68.12;97979.41;5020138;28;20050;-51
2022/07/21 02:22:44;;;;;;;10.10;8.98;;;21.20;99.90;;;21.61;67.56;97987.97;4989519;28;20052;-50
2022/07/21 02:25:13;;;;;;;12.38;10.05;;;21.20;99.90;;;21.61;68.43;97990.66;4988686;28;20072;-52
2022/07/21 02:27:43;;;;;;;10.95;9.68;;;21.20;99.90;;;21.61;67.54;97987.97;4988062;28;20056;-49
2022/07/21 02:30:13;;;;;;;10.40;9.30;;;21.20;99.90;;;21.64;67.83;97987.53;4986586;28;20379;-47
2022/07/21 02:32:41;;;;;;;10.57;9.18;;;21.30;99.90;;;21.65;67.52;97989.16;4987638;28;20050;-47
2022/07/21 02:35:11;;;;;;;11.48;9.27;;;21.30;99.90;;;21.66;67.80;97996.25;4988840;28;20046;-51
2022/07/21 02:37:39;;;;;;;11.20;9.57;;;21.20;99.90;;;21.65;67.34;97994.59;4987813;28;20053;-48
2022/07/21 02:40:08;;;;;;;18.92;10.38;;;21.20;99.90;;;21.65;67.07;97982.94;4986782;28;20662;-49
2022/07/21 02:42:37;;;;;;;11.00;9.23;;;21.20;99.90;;;21.66;67.89;97990.03;4987677;28;20072;-47
2022/07/21 02:45:08;;;;;;;10.38;9.05;;;21.30;99.90;;;21.67;67.28;97992.47;4988402;28;20049;-48
2022/07/21 02:48:10;;;;;;;10.80;9.70;;;21.30;99.90;;;21.67;67.19;97994.38;4987152;28;20083;-47
2022/07/21 02:50:41;;;;;;;12.52;10.60;;;21.30;99.90;;;21.66;67.31;97998.16;4986714;28;20361;-52
2022/07/21 02:53:19;;;;;;;14.13;10.02;;;21.20;99.90;;;21.57;67.56;97997.59;4987083;28;20052;-49
2022/07/21 02:55:49;;;;;;;11.95;10.75;;;21.10;99.90;;;21.54;67.71;98000.75;4987092;28;20060;-51
2022/07/21 02:58:22;;;;;;;12.50;11.20;;;21.10;99.90;;;21.33;68.55;98016.31;4985312;28;20054;-51
2022/07/21 03:00:54;;;;;;;13.32;11.93;;;20.80;99.90;;;21.28;68.65;98016.16;4986680;28;20042;-49
2022/07/21 03:03:26;;;;;;;12.25;10.68;;;20.70;99.90;;;21.28;68.90;98009.91;4988764;28;20058;-49
2022/07/21 03:05:55;;;;;;;14.68;11.10;;;20.80;99.90;;;21.28;68.76;98001.78;4988587;28;20058;-50
2022/07/21 03:08:24;;;;;;;12.27;10.90;;;20.80;99.90;;;21.09;70.29;98009.84;4986877;28;20057;-50
2022/07/21 03:10:52;;;;;;;12.75;11.48;;;20.60;99.90;;;21.17;69.30;98008.72;4985858;28;20058;-52
2022/07/21 03:13:20;;;;;;;12.93;11.07;;;20.70;99.90;;;21.21;69.51;98009.97;4986458;28;20229;-48
2022/07/21 03:15:49;;;;;;;19.13;12.52;;;20.70;99.90;;;21.24;69.21;98014.94;4986977;28;20046;-49
2022/07/21 03:18:17;;;;;;;15.30;12.82;;;20.80;99.90;;;21.26;69.19;98022.84;4986741;28;20050;-48
2022/07/21 03:20:45;;;;;;;14.20;11.45;;;20.90;99.90;;;21.27;69.04;98025.34;4987598;28;20046;-47
2022/07/21 03:23:13;;;;;;;13.63;12.10;;;20.90;99.90;;;21.31;69.50;98025.72;4988014;28;20046;-51
2022/07/21 03:25:41;;;;;;;14.05;12.50;;;20.90;99.90;;;21.27;69.55;98024.47;4984634;28;20060;-50
2022/07/21 03:28:09;;;;;;;13.68;11.88;;;20.80;99.90;;;21.27;69.75;98030.75;4987531;28;20057;-50
2022/07/21 03:30:37;;;;;;;17.17;11.95;;;20.80;99.90;;;21.31;69.71;98033.84;4986698;28;20065;-49
2022/07/21 03:33:05;;;;;;;15.20;12.90;;;21.00;99.90;;;21.35;69.08;98027.75;4987335;28;20073;-49
2022/07/21 03:35:35;;;;;;;14.15;11.93;;;21.00;99.90;;;;;;4986528;28;20066;-48
2022/07/21 03:38:04;;;;;;;15.63;13.10;;;21.00;99.90;;;21.37;69.39;98032.97;4987110;28;20064;-52
2022/07/21 03:40:36;;;;;;;13.60;11.98;;;21.00;99.90;;;21.37;69.01;98038.38;4987128;28;20074;-51
2022/07/21 03:43:06;;;;;;;14.98;13.32;;;21.00;99.90;;;21.34;69.05;98045.03;4987191;28;20058;-51
2022/07/21 03:45:36;;;;;;;13.30;11.90;;;20.90;99.90;;;21.33;69.64;98048.00;4988135;28;20054;-50
2022/07/21 03:48:06;;;;;;;17.77;13.45;;;20.90;99.90;;;21.31;69.19;98050.91;4987887;28;20280;-51
2022/07/21 03:50:36;;;;;;;12.88;11.57;;;20.90;99.90;;;21.32;69.29;98049.84;4987823;28;20222;-49
2022/07/21 03:53:06;;;;;;;13.38;11.93;;;20.90;99.90;;;21.33;69.11;98048.00;4987194;28;20058;-48
2022/07/21 03:55:34;;;;;;;14.27;12.93;;;21.00;99.90;;;21.31;69.18;98047.38;4985982;28;20054;-47
2022/07/21 03:58:05;;;;;;;13.70;11.93;;;20.90;99.90;;;21.28;68.94;98036.97;4987305;28;20137;-49
2022/07/21 04:00:39;;;;;;;14.80;12.13;;;20.80;99.90;;;21.19;69.12;98048.09;4987810;28;20643;-50
2022/07/21 04:03:08;;;;;;;17.77;13.20;;;20.70;99.90;;;21.07;69.59;98051.72;4986349;28;20042;-47
2022/07/21 04:05:38;;;;;;;15.27;12.90;;;20.60;99.90;;;21.08;69.76;98050.69;4988065;28;20046;-51
2022/07/21 04:08:08;;;;;;;18.00;14.00;;;20.60;99.90;;;21.11;69.56;98052.94;4987415;28;20058;-47
2022/07/21 04:10:38;;;;;;;13.52;11.95;;;20.60;99.90;;;21.05;69.71;98057.34;4988793;28;20058;-50
2022/07/21 04:13:11;;;;;;;14.15;12.70;;;20.60;99.90;;;21.02;69.43;98055.91;4987785;28;20245;-50
2022/07/21 04:15:39;;;;;;;14.52;12.98;;;20.60;99.90;;;21.01;69.34;98061.53;4987616;28;20439;-50
2022/07/21 04:18:07;;;;;;;14.18;12.65;;;20.60;99.90;;;20.99;69.60;98061.75;4985834;28;20069;-47
2022/07/21 04:20:36;;;;;;;14.30;12.18;;;20.60;99.90;;;20.97;69.64;98060.31;4986897;28;20054;-49
2022/07/21 04:23:04;;;;;;;12.63;11.43;;;20.50;99.90;;;20.88;69.63;98076.00;4985452;28;20394;-50
2022/07/21 04:25:32;;;;;;;14.45;12.80;;;20.40;99.90;;;20.77;69.82;98063.97;4988453;28;20054;-48
2022/07/21 04:28:00;;;;;;;16.50;13.27;;;20.30;99.90;;;20.77;70.02;98068.56;4989950;28;20046;-48
2022/07/21 04:30:28;;;;;;;15.57;12.40;;;20.30;99.90;;;20.78;69.92;98075.63;4990192;28;20061;-49
2022/07/21 04:32:56;;;;;;;15.73;11.27;;;20.30;99.90;;;20.81;70.37;98077.91;4989199;28;20068;-49
2022/07/21 04:35:24;;;;;;;15.57;13.68;;;20.40;99.90;;;20.84;70.24;98075.59;4993033;28;20068;-47
2022/07/21 04:37:52;;;;;;;14.02;11.75;;;20.50;99.90;;;20.89;69.63;98068.69;4990006;28;20589;-48
2022/07/21 04:40:20;;;;;;;13.93;12.50;;;20.60;99.90;;;20.86;69.90;98067.25;4989126;28;20069;-49
2022/07/21 04:42:48;;;;;;;15.15;11.63;;;20.50;99.90;;;20.84;69.94;98069.34;4989983;28;20061;-51
2022/07/21 04:45:17;;;;;;;14.25;12.55;;;20.50;99.90;;;20.88;70.51;98072.44;4988861;28;20072;-50
2022/07/21 04:47:54;;;;;;;15.23;11.93;;;20.50;99.90;;;20.94;69.85;98068.88;4990066;28;20058;-50
2022/07/21 04:50:25;;;;;;;14.88;12.98;;;20.60;99.90;;;20.99;69.87;98069.03;4988697;28;20046;-51
2022/07/21 04:52:54;;;;;;;13.60;11.88;;;20.70;99.90;;;21.03;69.74;98063.00;4990524;28;20336;-51
2022/07/21 04:55:22;;;;;;;14.13;12.73;;;20.80;99.90;;;21.08;69.95;98064.22;4990038;28;20058;-48
2022/07/21 04:57:52;;;;;;;14.93;12.85;;;20.80;99.90;;;21.10;69.34;98073.75;4990199;28;20042;-53
2022/07/21 05:00:23;;;;;;;15.63;12.18;;;20.80;99.90;;;21.10;69.28;98081.06;4989478;28;20054;-51
2022/07/21 05:02:53;;;;;;;14.55;13.07;;;20.80;99.90;;;21.11;69.57;98080.84;4990141;28;20042;-49
2022/07/21 05:05:21;;;;;;;15.73;11.98;;;20.80;99.90;;;21.12;69.54;98081.66;4987731;28;20047;-48
2022/07/21 05:07:49;;;;;;;15.48;12.80;;;20.80;99.90;;;21.09;69.44;98080.22;4989972;28;20043;-49
2022/07/21 05:10:18;;;;;;;14.40;12.90;;;20.70;99.90;;;21.08;69.57;98075.03;4990321;28;20054;-48
2022/07/21 05:12:46;;;;;;;14.02;12.40;;;20.70;99.90;;;21.11;69.37;98085.41;4989737;28;20356;-47
2022/07/21 05:15:15;;;;;;;13.57;12.27;;;20.70;99.90;;;21.10;69.12;98083.78;4989671;28;20371;-47
2022/07/21 05:17:43;;;;;;;16.75;13.00;;;20.70;99.90;;;21.10;69.09;98090.00;4990304;28;20058;-52
2022/07/21 05:20:11;;;;;;;14.65;13.15;;;20.80;99.90;;;21.11;68.99;98083.56;4989616;28;20058;-49
2022/07/21 05:22:40;;;;;;;16.00;12.90;;;20.80;99.90;;;21.08;69.09;98089.41;4988352;28;20046;-49
2022/07/21 05:25:08;;;;;;;14.35;11.73;;;20.80;99.90;;;21.10;69.18;98083.78;4989878;28;20246;-48
2022/07/21 05:27:36;;;;;;;15.70;12.90;;;20.80;99.90;;;21.09;68.81;98079.38;4989494;28;20056;-49
2022/07/21 05:30:05;;;;;;;12.27;11.05;;;20.70;99.90;;;21.08;69.21;98077.75;4988381;28;20064;-50
2022/07/21 05:32:34;;;;;;;17.00;11.80;;;20.70;99.90;;;21.08;69.12;98081.28;4989829;28;20054;-47
2022/07/21 05:35:08;;;;;;;12.95;10.80;;;20.80;99.90;;;21.11;69.08;98080.84;4989560;28;20054;-47
2022/07/21 05:37:37;;;;;;;12.20;10.98;;;20.80;99.90;;;21.14;68.96;98091.22;4987530;28;20058;-50
2022/07/21 05:40:08;;;;;;;13.30;11.30;;;20.90;99.90;;;21.17;68.84;98081.81;4990494;28;20449;-47
2022/07/21 05:42:36;;;;;;;13.43;11.25;;;20.90;99.90;;;21.22;68.52;98090.13;4987084;28;20046;-51
2022/07/21 05:45:05;;;;;;;12.70;11.45;;;21.00;99.90;;;21.27;68.46;98094.88;4989625;28;20064;-54
2022/07/21 05:47:33;;;;;;;12.38;11.07;;;21.10;99.90;;;21.32;68.35;98100.47;4988033;28;20300;-53
2022/07/21 05:50:01;;;;;;;13.57;12.02;;;21.10;99.90;;;;;;4987890;28;20059;-49
2022/07/21 05:52:29;;;;;;;13.40;12.07;;;21.20;99.90;;;21.45;68.36;98105.84;4989783;28;20225;-48
2022/07/21 05:54:57;;;;;;;13.38;12.00;;;21.30;99.90;;;21.52;68.14;98111.19;4988803;28;20375;-51
2022/07/21 05:57:26;;;;;;;14.77;12.45;;;21.40;99.90;;;21.56;67.82;98113.25;4988341;28;20062;-48
2022/07/21 05:59:54;;;;;;;14.18;11.27;;;21.40;99.90;;;21.56;68.14;98121.38;4987467;28;20356;-50
2022/07/21 06:02:21;;;;;;;12.48;11.27;;;21.40;99.90;;;21.66;68.23;98122.78;4989064;28;20054;-48
2022/07/21 06:04:49;;;;;;;13.35;11.18;;;21.60;99.90;;;21.78;67.82;98127.22;4987826;28;20054;-46
2022/07/21 06:07:17;;;;;;;11.48;10.38;;;21.80;99.90;;;21.79;67.14;98131.63;4987077;28;20053;-45
2022/07/21 06:09:45;;;;;;;11.20;10.10;;;21.70;99.90;;;21.76;67.13;98123.09;4987336;28;20058;-46
2022/07/21 06:12:13;;;;;;;11.73;10.52;;;21.70;99.90;;;21.66;66.23;98134.44;4988224;28;20273;-49
2022/07/21 06:14:41;;;;;;;11.98;10.65;;;21.50;99.90;;;21.65;66.67;98127.34;4989006;28;20069;-47
2022/07/21 06:17:09;;;;;;;12.20;10.05;;;21.50;99.90;;;21.61;67.18;98134.25;4987130;28;20058;-46
2022/07/21 06:19:37;;;;;;;11.50;10.27;;;21.50;99.90;;;21.52;66.95;98132.84;5018109;28;20254;-47
2022/07/21 06:22:05;;;;;;;12.65;11.35;;;21.40;99.90;;;21.53;67.14;98132.66;4988942;28;20053;-47
2022/07/21 06:24:33;;;;;;;12.38;11.13;;;21.40;99.90;;;21.53;67.36;98129.94;4987517;28;20255;-48
2022/07/21 06:27:01;;;;;;;12.07;10.88;;;21.40;99.90;;;21.64;67.39;98136.53;4985638;28;20050;-51
2022/07/21 06:29:33;;;;;;;11.65;10.27;;;21.50;99.90;;;21.67;67.04;98129.84;4987550;28;20245;-46
2022/07/21 06:32:01;;;;;;;10.73;9.60;;;21.50;99.90;;;21.75;66.26;98125.00;4988514;28;20222;-47
2022/07/21 06:34:29;;;;;;;10.98;9.85;;;21.60;99.90;;;21.68;65.82;98126.91;4988099;28;20493;-51
2022/07/21 06:36:57;;;;;;;10.98;8.90;;;21.50;99.90;;;21.60;65.80;98125.31;4987390;28;20080;-47
2022/07/21 06:39:25;;;;;;;11.18;10.00;;;21.40;99.90;;;21.58;65.59;98126.59;4986647;28;20056;-46
2022/07/21 06:41:53;;;;;;;11.45;9.30;;;21.40;99.90;;;21.62;66.09;98128.63;4988513;28;20052;-49
2022/07/21 06:44:20;;;;;;;12.98;10.30;;;21.50;99.90;;;21.58;66.02;98129.28;4988424;28;20054;-48
2022/07/21 06:46:48;;;;;;;10.32;9.32;;;21.40;99.90;;;21.69;65.96;98133.16;4987500;28;20335;-49
2022/07/21 06:49:16;;;;;;;11.43;9.50;;;21.50;99.90;;;21.65;64.97;98127.34;4988604;28;20054;-52
2022/07/21 06:51:44;;;;;;;12.55;9.43;;;21.60;99.90;;;21.63;65.20;98129.44;4987919;28;20050;-52
2022/07/21 06:54:13;;;;;;;10.82;8.73;;;21.50;99.90;;;21.69;64.66;98133.16;4988000;28;20052;-53
2022/07/21 06:56:41;;;;;;;10.75;9.65;;;21.60;99.90;;;21.79;64.99;98130.75;4987462;28;20371;-48
2022/07/21 06:59:09;;;;;;;11.07;9.75;;;21.80;99.90;;;21.92;64.89;98137.97;4986316;28;20064;-51
2022/07/21 07:01:38;;;;;;;11.73;9.93;;;21.90;99.90;;;21.87;64.64;98135.06;4997560;28;20064;-50
2022/07/21 07:04:07;;;;;;;11.68;9.80;;;21.90;99.90;;;21.93;64.26;98136.94;4992707;28;20244;-50
2022/07/21 07:06:35;;;;;;;10.95;9.85;;;21.90;99.90;;;21.98;63.82;98140.63;4987234;28;20052;-51
2022/07/21 07:09:03;;;;;;;10.93;8.80;;;21.90;99.90;;;21.98;63.84;98146.06;4987550;28;20054;-49
2022/07/21 07:11:33;;;;;;;10.90;9.30;;;21.90;99.90;;;21.92;63.90;98146.09;4987342;28;20064;-52
2022/07/21 07:14:01;;;;;;;9.73;8.50;;;21.80;99.90;;;22.03;63.65;98143.47;4986927;28;20050;-50
2022/07/21 07:16:45;;;;;;;9.30;7.88;;;22.00;99.90;;;22.17;62.37;98146.88;4987324;28;20054;-49
2022/07/21 07:19:13;;;;;;;9.23;7.97;;;22.20;99.90;;;22.25;62.13;98147.69;4986561;28;20257;-51
2022/07/21 07:21:41;;;;;;;9.68;8.57;;;22.30;99.90;;;22.32;62.00;98143.88;4985885;28;20110;-51
2022/07/21 07:24:08;;;;;;;12.77;8.48;;;22.40;99.90;;;22.33;61.88;98142.81;4987459;28;20054;-51
2022/07/21 07:26:36;;;;;;;8.25;7.45;;;22.30;99.90;;;22.39;62.07;98144.63;4987519;28;20050;-51
2022/07/21 07:29:04;;;;;;;8.80;7.65;;;22.40;99.90;;;22.40;61.05;98140.03;4987748;28;20046;-50
2022/07/21 07:31:32;;;;;;;8.50;7.03;;;22.40;98.60;;;22.42;60.57;98148.75;4987228;28;20050;-50
2022/07/21 07:34:01;;;;;;;9.18;8.27;;;22.40;96.60;;;22.47;60.75;98143.50;4986666;28;20058;-50
2022/07/21 07:36:29;;;;;;;9.70;7.43;;;22.40;95.80;;;22.53;60.61;98145.31;4987136;28;20070;-51
2022/07/21 07:38:57;;;;;;;10.30;7.50;;;22.50;93.30;;;22.54;60.52;98151.56;4983960;28;20060;-48
2022/07/21 07:41:26;;;;;;;8.23;7.43;;;22.50;94.70;;;22.59;60.09;98140.88;4986385;28;20065;-52
2022/07/21 07:43:55;;;;;;;9.40;8.13;;;22.60;94.40;;;22.64;60.16;98145.59;4986541;28;20050;-50
2022/07/21 07:46:26;;;;;;;9.00;7.65;;;22.60;92.60;;;22.65;59.79;98148.09;4986396;28;20050;-50
2022/07/21 07:48:55;;;;;;;7.43;6.72;;;22.60;92.40;;;22.73;59.10;98153.22;4987458;28;20046;-50
2022/07/21 07:51:25;;;;;;;7.70;6.90;;;22.80;90.30;;;22.78;59.20;98150.66;4987517;28;20062;-53
2022/07/21 07:53:53;;;;;;;9.30;7.88;;;22.80;89.70;;;22.91;58.78;98149.63;4986680;28;20345;-50
2022/07/21 07:56:22;;;;;;;9.30;7.88;;;23.10;88.10;;;23.00;58.11;98147.44;4987871;28;20060;-52
2022/07/21 07:58:50;;;;;;;8.27;7.28;;;23.20;85.30;;;23.08;58.18;98146.34;4986625;28;20050;-49
2022/07/21 08:01:18;;;;;;;8.05;7.25;;;23.30;84.90;;;23.16;58.18;98152.25;5018044;28;20050;-50
2022/07/21 08:03:46;;;;;;;7.43;6.68;;;23.40;85.30;;;23.25;58.11;98146.53;5018330;28;20259;-52
2022/07/21 08:06:14;;;;;;;8.88;7.15;;;23.40;84.30;;;23.38;58.04;98154.50;5019898;28;20054;-52
2022/07/21 08:08:42;;;;;;;6.90;6.20;;;23.70;83.60;;;23.48;57.29;98149.31;5018967;28;20060;-50
2022/07/21 08:11:11;;;;;;;7.80;7.10;;;23.70;81.80;;;23.55;56.65;98149.19;5018019;28;20056;-49
2022/07/21 08:13:39;;;;;;;11.15;6.63;;;23.80;77.60;;;23.57;56.58;98157.94;5021633;28;20527;-51
2022/07/21 08:16:08;;;;;;;8.70;7.90;;;23.80;74.90;;;23.56;56.21;98156.31;5018003;28;20336;-49
2022/07/21 08:18:36;;;;;;;10.07;7.13;;;23.70;74.90;;;23.53;56.18;98156.75;5019447;28;20055;-49
2022/07/21 08:21:04;;;;;;;7.88;7.10;;;23.60;75.60;;;23.57;56.25;98155.22;5029564;28;20256;-52
2022/07/21 08:23:32;;;;;;;8.43;7.63;;;23.60;75.20;;;23.50;56.12;98143.66;5014596;28;20060;-50
2022/07/21 08:26:00;;;;;;;7.50;6.75;;;23.40;74.60;;;23.46;56.19;98146.00;5017577;28;20358;-50
2022/07/21 08:28:30;;;;;;;9.32;6.78;;;23.50;75.40;;;23.30;55.29;98144.78;5021092;28;20041;-51
2022/07/21 08:30:58;;;;;;;7.65;6.90;;;23.40;73.20;;;23.37;55.40;98148.19;5021063;28;20037;-53
2022/07/21 08:33:26;;;;;;;6.32;5.72;;;23.40;73.10;;;23.27;54.41;98138.97;5020005;28;20331;-52
2022/07/21 08:35:53;;;;;;;8.48;6.65;;;23.30;69.70;;;23.29;54.63;98145.00;5051549;28;20067;-51
2022/07/21 08:38:22;;;;;;;8.82;6.90;;;23.40;71.20;;;23.27;54.69;98134.38;5019213;28;20050;-49
2022/07/21 08:40:50;;;;;;;6.03;5.43;;;23.40;70.90;;;23.44;54.67;98136.41;5020166;28;20390;-51
2022/07/21 08:43:18;;;;;;;7.05;6.35;;;23.50;70.70;;;23.50;54.04;98127.34;5017819;28;20052;-53
2022/07/21 08:45:48;;;;;;;7.32;6.60;;;23.60;69.50;;;23.54;54.13;98123.91;5019331;28;20354;-52
2022/07/21 08:48:23;;;;;;;6.32;5.72;;;23.70;69.60;;;23.58;53.36;98129.72;5019546;28;20041;-51
2022/07/21 08:50:52;;;;;;;6.03;5.43;;;23.70;67.00;;;23.65;53.32;98127.75;5017077;28;20037;-53
2022/07/21 08:53:20;;;;;;;7.47;6.28;;;23.90;67.60;;;23.64;53.04;98117.91;5019070;28;20246;-55
2022/07/21 08:55:48;;;;;;;6.45;5.85;;;23.80;66.70;;;23.74;52.43;98133.66;5020329;28;20069;-51
2022/07/21 08:58:16;;;;;;;6.70;5.72;;;23.90;65.40;;;23.72;52.14;98130.34;5020265;28;20050;-54
2022/07/21 09:00:48;;;;;;;8.57;6.03;;;23.80;64.50;;;23.79;53.03;98139.25;5020597;28;20112;-53
2022/07/21 09:03:23;;;;;;;5.72;5.20;;;23.80;66.40;;;23.87;52.29;98135.34;5016381;28;20069;-50
2022/07/21 09:06:10;;;;;;;6.30;5.70;;;24.00;63.60;;;23.80;51.38;98131.91;5018056;28;20052;-50
2022/07/21 09:08:48;;;;;;;7.20;6.03;;;23.90;63.00;;;23.70;50.87;98138.72;5019259;28;20052;-49
2022/07/21 09:11:22;;;;;;;7.80;6.05;;;23.70;63.00;;;23.64;51.77;98134.22;5017249;28;20249;-53
2022/07/21 09:14:18;;;;;;;8.77;6.30;;;23.60;65.00;;;23.61;51.75;98136.56;5019674;28;20064;-49
2022/07/21 09:16:51;;;;;;;6.80;5.63;;;23.60;63.50;;;23.54;51.35;98142.94;5019282;28;20057;-49
2022/07/21 09:19:32;;;;;;;8.93;6.20;;;23.50;64.40;;;23.60;51.41;98138.47;5019176;28;20052;-52
2022/07/21 09:22:03;;;;;;;6.85;6.05;;;23.60;64.70;;;23.68;51.75;98140.84;5020282;28;20280;-52
2022/07/21 09:24:39;;;;;;;6.18;5.30;;;23.70;64.50;;;23.81;51.13;98141.72;5018872;28;20053;-48
2022/07/21 09:27:16;;;;;;;5.75;5.15;;;24.00;63.60;;;23.97;51.41;98133.69;5016071;28;20356;-49
2022/07/21 09:29:49;;;;;;;5.68;4.95;;;24.20;63.40;;;24.15;51.05;98138.19;5020183;28;20042;-49
2022/07/21 09:32:24;;;;;;;6.13;5.10;;;24.50;62.00;;;24.22;50.01;98132.63;5019645;28;20385;-51
2022/07/21 09:35:00;;;;;;;7.65;5.90;;;24.50;59.70;;;24.06;49.82;98134.19;5018825;28;20068;-53
2022/07/21 09:37:35;;;;;;;6.75;5.28;;;24.30;59.70;;;24.22;50.70;98138.06;5017141;28;20257;-48
2022/07/21 09:40:09;;;;;;;6.55;5.72;;;24.40;62.10;;;24.30;50.67;98139.59;5018091;28;20364;-48
2022/07/21 09:42:41;;;;;;;7.55;5.63;;;24.50;61.50;;;24.26;49.55;98136.53;5019895;28;20069;-51
2022/07/21 09:45:12;;;;;;;7.63;5.22;;;24.50;58.40;;;24.21;49.25;98130.97;5016360;28;20371;-50
2022/07/21 09:47:42;;;;;;;5.35;4.85;;;24.40;59.30;;;24.24;49.33;98130.50;5017590;28;20038;-49
2022/07/21 09:50:13;;;;;;;5.53;4.53;;;24.30;60.10;;;24.30;49.41;98126.81;5017583;28;20233;-52
2022/07/21 09:52:57;;;;;;;6.70;5.05;;;24.40;59.80;;;24.41;49.55;98124.31;5017600;28;20049;-50
2022/07/21 09:55:26;;;;;;;6.57;5.50;;;24.60;59.50;;;24.51;49.46;98121.88;5017252;28;20045;-50
2022/07/21 09:57:55;;;;;;;5.30;4.55;;;24.80;59.30;;;24.57;47.98;98118.19;5017072;28;20366;-53
2022/07/21 10:00:23;;;;;;;5.65;5.07;;;24.90;56.80;;;24.68;48.05;98120.06;5018239;28;20062;-54
2022/07/21 10:02:52;;;;;;;7.57;5.30;;;25.00;57.40;;;24.74;47.68;98121.00;5022877;28;20248;-49
2022/07/21 10:05:21;;;;;;;4.80;4.30;;;25.00;55.90;;;24.82;47.42;98114.34;5022186;28;20059;-49
2022/07/21 10:08:03;;;;;;;5.20;4.72;;;25.20;56.70;;;24.88;46.53;98114.19;5023501;28;20049;-51
2022/07/21 10:10:34;;;;;;;5.20;4.70;;;25.20;54.60;;;24.79;45.00;98117.53;5024304;28;20046;-50
2022/07/21 10:13:23;;;;;;;6.93;4.72;;;25.10;51.30;;;24.81;45.51;98104.50;5023732;28;20080;-50
2022/07/21 10:15:53;;;;;;;7.15;4.82;;;25.10;53.90;;;24.84;45.64;98104.03;5023058;28;20244;-51
2022/07/21 10:18:28;;;;;;;5.00;4.45;;;25.10;53.40;;;24.73;45.17;98101.09;5023141;28;20042;-52
2022/07/21 10:21:35;;;;;;;6.60;4.78;;;24.90;54.30;;;24.78;44.17;98103.09;5022284;28;20046;-51
2022/07/21 10:24:05;;;;;;;5.78;4.70;;;25.00;51.70;;;24.85;45.36;98098.31;5007184;28;20052;-54
2022/07/21 10:26:33;;;;;;;6.57;4.20;;;25.00;53.90;;;24.85;45.17;98097.50;5023419;28;20050;-52